Time;durP1;ratioP1;P1;durP2;ratioP2;P2;SDS_P1;SDS_P2;PMS_P1;PMS_P2;Temp;Humidity;BMP_temperature;BMP_pressure;BME280_temperature;BME280_humidity;BME280_pressure;Samples;Min_cycle;Max_cycle;Signal;HPM_P1;HPM_P2
2022/08/23 00:01:38;;;;;;;21.95;14.10;;;;;;;20.15;76.60;94106.47;4170627;28;20060;-68
2022/08/23 00:03:41;;;;;;;17.05;13.90;;;;;;;20.10;76.94;94113.56;4152619;28;20116;-69
2022/08/23 00:05:43;;;;;;;20.25;13.88;;;;;;;20.09;76.87;94111.94;4174852;28;20114;-67
2022/08/23 00:07:45;;;;;;;18.23;14.05;;;;;;;20.10;76.91;94119.69;4172830;28;20103;-68
2022/08/23 00:09:47;;;;;;;16.27;14.13;;;;;;;20.11;77.02;94123.16;4175427;28;20140;-68
2022/08/23 00:11:52;;;;;;;18.08;13.73;;;;;;;20.12;77.11;94116.78;4174730;28;20519;-69
2022/08/23 00:13:55;;;;;;;18.67;14.30;;;;;;;20.18;77.09;94123.84;4149689;28;20053;-68
2022/08/23 00:15:57;;;;;;;16.98;14.27;;;;;;;20.24;76.67;94130.88;4161914;28;20542;-66
2022/08/23 00:17:59;;;;;;;22.38;14.93;;;;;;;20.26;76.89;94128.78;4167196;28;20049;-67
2022/08/23 00:20:06;;;;;;;18.25;14.20;;;;;;;20.27;76.77;94125.09;4175873;28;20045;-67
2022/08/23 00:22:09;;;;;;;17.02;14.20;;;;;;;20.23;76.60;94126.63;4174490;28;20166;-69
2022/08/23 00:24:12;;;;;;;18.23;14.18;;;;;;;20.18;76.82;94122.00;4171756;28;20049;-69
2022/08/23 00:26:14;;;;;;;20.27;14.02;;;;;;;20.19;76.94;94112.16;4178040;28;20231;-68
2022/08/23 00:28:16;;;;;;;19.65;14.80;;;;;;;20.18;77.08;94110.56;4166043;28;20083;-68
2022/08/23 00:30:18;;;;;;;20.00;15.77;;;;;;;20.18;77.41;94116.69;4164215;28;20053;-67
2022/08/23 00:32:39;;;;;;;18.42;14.82;;;;;;;20.13;77.63;94113.09;4157237;28;20096;-66
2022/08/23 00:34:41;;;;;;;26.30;14.85;;;;;;;20.13;77.52;94119.22;4155280;28;20441;-69
2022/08/23 00:36:46;;;;;;;18.40;14.73;;;;;;;20.12;77.68;94114.94;4180120;28;20057;-67
2022/08/23 00:38:48;;;;;;;20.13;15.55;;;;;;;20.14;77.78;94122.69;4173328;28;20488;-67
2022/08/23 00:40:51;;;;;;;21.05;14.00;;;;;;;20.13;77.36;94123.72;4174753;28;20090;-68
2022/08/23 00:47:56;;;;;;;17.10;12.98;;;;;;;20.02;76.79;94110.19;4156969;28;20080;-69
2022/08/23 00:50:03;;;;;;;17.70;12.77;;;;;;;20.02;76.42;94112.84;4159344;28;20075;-67
2022/08/23 00:52:30;;;;;;;17.02;13.00;;;;;;;20.03;76.51;94119.00;4157924;28;20049;-68
2022/08/23 00:54:32;;;;;;;16.88;13.07;;;;;;;20.00;76.14;94111.47;4172609;28;20053;-71
2022/08/23 00:56:38;;;;;;;16.00;12.80;;;;;;;19.93;76.06;94110.78;4156469;28;20069;-68
2022/08/23 00:58:40;;;;;;;21.48;15.32;;;;;;;19.83;76.80;94109.53;4170774;28;20315;-68
2022/08/23 01:00:42;;;;;;;18.35;14.43;;;;;;;19.79;77.34;94120.84;4163832;28;20432;-69
2022/08/23 01:02:46;;;;;;;20.08;14.05;;;;;;;19.81;77.75;94116.91;4172431;28;20053;-69
2022/08/23 01:04:53;;;;;;;18.33;15.25;;;;;;;19.84;77.70;94120.97;4165947;28;20075;-70
2022/08/23 01:07:02;;;;;;;17.52;14.27;;;;;;;19.87;77.60;94125.00;4153126;28;20057;-69
2022/08/23 01:09:07;;;;;;;18.65;15.13;;;;;;;19.90;77.71;94128.00;4152425;28;20038;-68
2022/08/23 01:11:23;;;;;;;18.75;14.85;;;;;;;19.87;77.32;94115.16;4140436;28;20049;-69
2022/08/23 01:13:36;;;;;;;23.70;15.60;;;;;;;19.82;77.50;94125.69;4157229;28;20111;-68
2022/08/23 01:15:44;;;;;;;19.52;14.80;;;;;;;19.79;77.97;94128.81;4172013;28;20568;-69
2022/08/23 01:18:01;;;;;;;19.38;14.77;;;;;;;19.77;78.20;94128.25;4143755;28;20497;-68
2022/08/23 01:20:16;;;;;;;23.60;15.50;;;;;;;19.80;78.35;94133.09;4173698;28;20517;-68
2022/08/23 01:22:35;;;;;;;22.98;16.75;;;;;;;19.77;78.04;94131.69;4151974;28;20133;-68
2022/08/23 01:24:37;;;;;;;20.10;16.63;;;;;;;19.77;78.42;94129.03;4156819;28;20127;-69
2022/08/23 01:26:59;;;;;;;23.67;16.88;;;;;;;19.79;78.37;94140.25;4158710;28;20201;-69
2022/08/23 01:29:04;;;;;;;17.48;15.52;;;;;;;19.78;78.18;94141.28;4161823;28;20476;-69
2022/08/23 01:31:08;;;;;;;21.88;16.30;;;;;;;19.79;78.29;94134.13;4164012;28;20405;-70
2022/08/23 01:33:10;;;;;;;19.85;16.05;;;;;;;19.81;78.30;94132.03;4132832;28;20450;-67
2022/08/23 01:35:13;;;;;;;19.45;17.25;;;;;;;19.85;78.25;94127.88;4163342;28;20053;-69
2022/08/23 01:37:15;;;;;;;26.80;15.57;;;;;;;19.90;78.27;94135.19;4159951;28;20054;-68
2022/08/23 01:39:16;;;;;;;24.15;16.48;;;;;;;19.93;78.04;94124.88;4166217;28;20063;-69
2022/08/23 01:41:18;;;;;;;22.95;17.27;;;;;;;19.92;78.05;94123.28;4153729;28;20612;-67
2022/08/23 01:43:21;;;;;;;23.38;17.08;;;;;;;19.93;78.46;94121.41;4173467;28;20065;-67
2022/08/23 01:45:23;;;;;;;22.33;17.00;;;;;;;19.88;78.58;94126.63;4173350;28;20115;-67
2022/08/23 01:47:25;;;;;;;24.17;17.88;;;;;;;19.89;78.73;94129.03;4172936;28;20163;-67
2022/08/23 01:49:27;;;;;;;25.67;18.17;;;;;;;19.89;78.52;94128.25;4158714;28;20049;-67
2022/08/23 01:51:30;;;;;;;24.80;19.52;;;;;;;19.85;78.92;94138.50;4177426;28;20488;-66
2022/08/23 01:53:32;;;;;;;25.73;19.30;;;;;;;19.84;79.12;94132.38;4176369;28;20401;-69
2022/08/23 01:55:35;;;;;;;26.00;18.33;;;;;;;19.86;79.16;94132.16;4174842;28;20114;-68
2022/08/23 01:57:39;;;;;;;25.65;19.95;;;;;;;19.87;79.22;94125.00;4159925;28;20084;-67
2022/08/23 01:59:41;;;;;;;31.65;19.15;;;;;;;19.93;78.87;94122.22;4158957;28;20432;-69
2022/08/23 02:01:44;;;;;;;26.88;18.33;;;;;;;19.96;78.64;94110.31;4159378;28;20433;-67
2022/08/23 02:03:46;;;;;;;27.70;18.30;;;;;;;19.96;78.53;94121.78;4156837;28;20518;-68
2022/08/23 02:05:55;;;;;;;24.00;18.45;;;;;;;19.92;78.75;94122.44;4144386;28;20062;-68
2022/08/23 02:08:59;;;;;;;26.92;18.30;;;;;;;19.93;78.86;94124.06;4171420;28;20072;-67
2022/08/23 02:10:19;;;;;;;22.42;17.50;;;;;;;19.95;78.27;94119.34;4161630;28;20554;-67
2022/08/23 02:12:21;;;;;;;24.88;17.63;;;;;;;19.96;78.33;94124.44;4160443;28;20064;-68
2022/08/23 02:14:23;;;;;;;21.73;16.90;;;;;;;19.81;78.02;94122.22;4165598;28;20507;-68
2022/08/23 02:16:34;;;;;;;26.98;16.92;;;;;;;19.77;78.18;94121.06;4170829;28;20057;-69
2022/08/23 02:18:37;;;;;;;25.02;16.40;;;;;;;19.71;78.49;94111.34;4177013;28;20049;-68
2022/08/23 02:20:49;;;;;;;20.77;16.60;;;;;;;19.67;78.58;94120.00;4173025;28;20455;-69
2022/08/23 02:22:51;;;;;;;20.08;16.40;;;;;;;19.60;78.86;94109.47;4153921;28;20085;-69
2022/08/23 02:24:53;;;;;;;27.38;15.95;;;;;;;19.62;79.05;94107.41;4169676;28;20124;-68
2022/08/23 02:26:57;;;;;;;19.45;15.70;;;;;;;19.62;79.13;94108.19;4171365;28;20296;-68
2022/08/23 02:28:59;;;;;;;18.92;15.35;;;;;;;19.63;78.70;94109.00;4159828;28;20425;-69
2022/08/23 02:31:01;;;;;;;20.23;14.70;;;;;;;19.54;78.61;94105.88;4171465;28;20056;-70
2022/08/23 02:33:03;;;;;;;17.25;15.43;;;;;;;19.57;79.03;94104.59;4169856;28;20146;-69
2022/08/23 02:35:07;;;;;;;18.75;15.18;;;;;;;19.63;79.00;94099.19;4172125;28;20610;-70
2022/08/23 02:37:11;;;;;;;19.67;13.90;;;;;;;19.68;78.28;94105.66;4169407;28;20049;-69
2022/08/23 02:39:15;;;;;;;22.02;14.50;;;;;;;19.73;78.13;94103.16;4152152;28;20056;-68
2022/08/23 02:41:16;;;;;;;15.48;12.90;;;;;;;19.74;77.05;94102.91;4164735;28;20049;-69
2022/08/23 02:43:19;;;;;;;16.23;12.93;;;;;;;19.73;76.92;94103.16;4162072;28;20057;-69
2022/08/23 02:45:20;;;;;;;14.98;11.55;;;;;;;19.76;76.22;94105.34;4158872;28;20473;-67
2022/08/23 02:47:22;;;;;;;14.65;11.85;;;;;;;19.73;75.47;94098.66;4176834;28;20615;-71
2022/08/23 02:49:24;;;;;;;17.55;12.05;;;;;;;19.75;75.28;94112.50;4177117;28;20456;-70
2022/08/23 02:51:26;;;;;;;14.52;11.07;;;;;;;19.76;75.18;94110.66;4158574;28;20134;-71
2022/08/23 02:53:28;;;;;;;11.13;9.63;;;;;;;19.70;74.93;94099.09;4145759;28;20049;-68
2022/08/23 02:55:30;;;;;;;11.23;9.98;;;;;;;19.68;74.94;94100.34;4169287;28;20104;-68
2022/08/23 02:57:32;;;;;;;15.02;10.68;;;;;;;19.65;74.38;94101.59;4160560;28;20053;-67
2022/08/23 02:59:34;;;;;;;11.63;10.35;;;;;;;19.73;74.95;94095.19;4161421;28;20049;-68
2022/08/23 03:01:37;;;;;;;10.98;9.75;;;;;;;19.78;74.39;94084.66;4183589;28;20416;-68
2022/08/23 03:03:39;;;;;;;12.63;9.65;;;;;;;19.87;74.02;94093.09;4173604;28;20109;-67
2022/08/23 03:05:42;;;;;;;11.77;9.40;;;;;;;19.88;73.07;94092.06;4165951;28;20402;-69
2022/08/23 03:07:44;;;;;;;11.60;8.35;;;;;;;19.93;72.63;94092.97;4175777;28;20819;-68
2022/08/23 03:09:46;;;;;;;11.18;8.88;;;;;;;20.00;72.38;94092.88;4158502;28;20142;-69
2022/08/23 03:11:48;;;;;;;9.40;8.30;;;;;;;19.99;71.56;94084.09;4158841;28;20058;-69
2022/08/23 03:13:51;;;;;;;10.73;8.40;;;;;;;19.98;71.34;94089.63;4152758;28;20149;-69
2022/08/23 03:15:53;;;;;;;9.50;8.27;;;;;;;20.01;71.45;94087.31;4164864;28;20049;-70
2022/08/23 03:17:55;;;;;;;14.23;8.07;;;;;;;20.07;71.35;94092.75;4176866;28;20293;-67
2022/08/23 03:19:57;;;;;;;8.75;6.95;;;;;;;20.06;71.13;94091.94;4165075;28;20046;-68
2022/08/23 03:21:59;;;;;;;8.77;7.65;;;;;;;20.10;71.13;94093.09;4160923;28;20579;-67
2022/08/23 03:24:01;;;;;;;10.23;7.20;;;;;;;20.10;70.84;94097.59;4158322;28;20176;-67
2022/08/23 03:26:09;;;;;;;10.95;8.15;;;;;;;20.09;70.65;94093.31;4166861;28;20480;-68
2022/08/23 03:28:11;;;;;;;8.07;6.90;;;;;;;20.05;70.75;94088.47;4160343;28;20155;-69
2022/08/23 03:30:14;;;;;;;13.30;7.78;;;;;;;20.02;71.07;94090.78;4161056;28;20235;-66
2022/08/23 03:32:48;;;;;;;;;;;;;;;;;;;;;
2022/08/23 03:35:00;;;;;;;9.35;7.13;;;;;;;20.02;70.79;94102.22;4162058;28;20049;-69
2022/08/23 03:37:03;;;;;;;9.00;7.35;;;;;;;20.01;70.87;94110.44;4174460;28;20747;-68
2022/08/23 03:39:08;;;;;;;10.10;8.13;;;;;;;19.91;71.13;94100.38;4147842;28;20050;-68
2022/08/23 03:41:10;;;;;;;10.13;7.28;;;;;;;19.88;71.82;94100.84;4173041;28;20053;-69
2022/08/23 03:43:13;;;;;;;10.43;7.28;;;;;;;19.84;71.96;94120.97;4172832;28;20083;-67
2022/08/23 03:45:16;;;;;;;8.90;7.05;;;;;;;19.86;71.78;94115.41;4160203;28;20048;-67
2022/08/23 03:47:18;;;;;;;10.63;7.27;;;;;;;19.90;71.81;94117.38;4159240;28;20053;-67
2022/08/23 03:49:24;;;;;;;11.15;7.72;;;;;;;19.89;71.59;94114.94;4161817;28;20302;-65
2022/08/23 03:51:28;;;;;;;11.75;8.30;;;;;;;19.90;71.78;94128.00;4144031;28;20069;-69
2022/08/23 03:53:30;;;;;;;11.98;8.07;;;;;;;19.90;71.95;94129.88;4141149;28;20054;-67
2022/08/23 03:55:32;;;;;;;9.15;8.18;;;;;;;19.77;72.72;94136.22;4149286;28;20045;-67
2022/08/23 03:57:42;;;;;;;13.90;8.85;;;;;;;19.75;72.91;94146.25;4161914;28;20136;-69
2022/08/23 03:59:44;;;;;;;13.77;9.05;;;;;;;19.71;73.52;94150.41;4159390;28;20668;-66
2022/08/23 04:01:46;;;;;;;11.65;9.07;;;;;;;19.64;74.23;94155.81;4142543;28;20054;-69
2022/08/23 04:03:48;;;;;;;11.77;9.52;;;;;;;19.43;75.27;94167.75;4174716;28;20051;-66
2022/08/23 04:05:51;;;;;;;13.75;10.43;;;;;;;19.35;76.09;94173.38;4157428;28;20456;-66
2022/08/23 04:07:54;;;;;;;17.10;11.30;;;;;;;19.12;76.88;94171.44;4173588;28;20567;-68
2022/08/23 04:09:56;;;;;;;15.52;11.13;;;;;;;19.15;77.35;94179.78;4174439;28;20060;-68
2022/08/23 04:11:58;;;;;;;20.92;12.50;;;;;;;19.23;76.89;94183.97;4174229;28;20519;-67
2022/08/23 04:13:59;;;;;;;20.85;13.30;;;;;;;19.31;76.85;94180.19;4168005;28;20057;-69
2022/08/23 04:16:03;;;;;;;19.02;14.75;;;;;;;19.32;76.85;94195.09;4164734;28;20068;-67
2022/08/23 04:18:05;;;;;;;19.30;14.95;;;;;;;19.33;76.50;94202.81;4174640;28;20049;-67
2022/08/23 04:20:10;;;;;;;21.83;15.32;;;;;;;19.36;76.65;94198.91;4168043;28;20045;-68
2022/08/23 04:22:14;;;;;;;24.13;15.80;;;;;;;19.43;76.62;94200.44;4178505;28;20142;-66
2022/08/23 04:24:17;;;;;;;18.27;15.32;;;;;;;19.46;76.10;94201.03;4141119;28;20344;-68
2022/08/23 04:26:20;;;;;;;23.70;15.68;;;;;;;19.48;76.15;94194.44;4169641;28;20599;-70
2022/08/23 04:28:22;;;;;;;20.17;15.23;;;;;;;19.47;76.11;94200.81;4170801;28;20281;-67
2022/08/23 04:30:24;;;;;;;21.00;15.32;;;;;;;19.51;76.26;94198.47;4170356;28;20422;-68
2022/08/23 04:32:26;;;;;;;21.00;15.57;;;;;;;19.51;76.18;94195.81;4175094;28;20063;-67
2022/08/23 04:34:29;;;;;;;24.55;17.02;;;;;;;19.34;76.27;94204.47;4167789;28;20459;-71
2022/08/23 04:36:34;;;;;;;21.98;17.20;;;;;;;19.24;77.18;94194.34;4167880;28;20072;-70
2022/08/23 04:38:36;;;;;;;24.73;18.25;;;;;;;19.17;77.51;94196.31;4172474;28;20107;-69
2022/08/23 04:43:01;;;;;;;20.60;17.15;;;;;;;19.36;76.93;94204.22;4164507;28;20127;-70
2022/08/23 04:45:06;;;;;;;24.48;17.73;;;;;;;19.45;76.76;94205.53;4160092;28;20053;-67
2022/08/23 04:47:08;;;;;;;23.67;17.05;;;;;;;19.27;77.38;94197.59;4174512;28;20297;-68
2022/08/23 04:49:10;;;;;;;26.98;19.77;;;;;;;19.17;77.78;94198.16;4175331;28;20102;-66
2022/08/23 04:51:12;;;;;;;26.10;20.73;;;;;;;18.94;79.13;94196.19;4183481;28;20111;-68
2022/08/23 04:53:16;;;;;;;24.20;20.00;;;;;;;19.03;79.33;94194.84;4159955;28;20064;-67
2022/08/23 04:55:18;;;;;;;;;;;;;;;18.95;79.69;94198.63;4159981;28;20077;-68
2022/08/23 04:57:19;;;;;;;31.67;23.30;;;;;;;18.93;79.85;94200.69;4159316;28;19947;-70
2022/08/23 04:59:22;;;;;;;31.60;23.27;;;;;;;18.85;80.21;94203.63;4171884;28;20049;-68
2022/08/23 05:01:24;;;;;;;33.70;24.35;;;;;;;18.81;80.72;94215.72;4161191;28;20041;-68
2022/08/23 05:03:28;;;;;;;38.40;28.08;;;;;;;18.58;81.40;94206.56;4171014;28;20061;-69
2022/08/23 05:05:30;;;;;;;38.53;28.42;;;;;;;18.62;81.51;94213.03;4175064;28;20127;-68
2022/08/23 05:07:32;;;;;;;37.75;28.30;;;;;;;18.58;81.76;94211.03;4173874;28;20072;-69
2022/08/23 05:09:44;;;;;;;43.00;30.42;;;;;;;18.60;82.23;94217.75;4162509;28;20232;-68
2022/08/23 05:11:46;;;;;;;38.28;29.65;;;;;;;18.66;81.78;94217.91;4183549;28;20066;-67
2022/08/23 05:13:49;;;;;;;35.80;27.75;;;;;;;18.67;81.20;94228.31;4164545;28;20091;-68
2022/08/23 05:15:51;;;;;;;36.50;28.33;;;;;;;18.62;81.56;94222.84;4152112;28;20065;-67
2022/08/23 05:17:53;;;;;;;46.22;34.92;;;;;;;18.42;82.14;94226.50;4174497;28;20064;-68
2022/08/23 05:19:55;;;;;;;41.90;31.98;;;;;;;18.49;82.37;94223.78;4174917;28;20044;-69
2022/08/23 05:21:57;;;;;;;40.65;28.48;;;;;;;18.48;81.89;94231.97;4173143;28;20053;-69
2022/08/23 05:24:00;;;;;;;33.72;25.98;;;;;;;18.53;81.73;94237.44;4169005;28;20049;-67
2022/08/23 05:26:04;;;;;;;32.60;25.80;;;;;;;18.46;82.14;94240.16;4157541;28;20061;-68
2022/08/23 05:28:07;;;;;;;29.85;24.67;;;;;;;18.57;81.93;94242.06;4152897;28;20054;-68
2022/08/23 05:30:10;;;;;;;28.67;23.63;;;;;;;18.59;81.53;94244.50;4171972;28;20045;-68
2022/08/23 05:32:16;;;;;;;27.67;23.13;;;;;;;18.70;80.24;94245.63;4158592;28;20440;-68
2022/08/23 05:34:18;;;;;;;26.23;22.55;;;;;;;18.80;80.15;94243.31;4158038;28;20049;-71
2022/08/23 05:36:23;;;;;;;30.25;22.80;;;;;;;18.91;80.05;94237.25;4171355;28;20045;-72
2022/08/23 05:38:25;;;;;;;28.15;23.90;;;;;;;19.04;79.41;94233.63;4167029;28;20480;-69
2022/08/23 05:40:28;;;;;;;29.83;24.10;;;;;;;19.05;78.53;94240.56;4156563;28;20136;-72
2022/08/23 05:42:30;;;;;;;30.20;23.85;;;;;;;18.97;79.10;94235.53;4164606;28;20148;-68
2022/08/23 05:44:31;;;;;;;19.92;16.48;;;;;;;19.19;78.55;94235.91;4165564;28;20724;-72
2022/08/23 05:46:38;;;;;;;30.13;24.70;;;;;;;19.40;77.31;94239.91;4160608;28;20061;-70
2022/08/23 05:48:45;;;;;;;44.17;35.75;;;;;;;19.49;77.04;94238.59;4181125;28;20131;-67
2022/08/23 05:50:47;;;;;;;42.83;35.40;;;;;;;19.53;76.82;94239.75;4163685;28;20141;-71
2022/08/23 05:52:49;;;;;;;45.92;34.58;;;;;;;19.57;76.51;94240.09;4159251;28;20349;-70
2022/08/23 05:54:51;;;;;;;44.38;34.28;;;;;;;19.74;76.81;94237.63;4142850;28;20124;-76
2022/08/23 05:56:53;;;;;;;41.28;29.65;;;;;;;19.91;75.45;94238.59;4161341;28;20057;-84
2022/08/23 05:58:57;;;;;;;38.90;29.70;;;;;;;19.88;74.48;94231.09;4171193;28;20049;-81
2022/08/23 06:01:00;;;;;;;31.55;25.45;;;;;;;19.93;75.23;94241.84;4187450;28;20060;-69
2022/08/23 06:03:03;;;;;;;28.67;22.00;;;;;;;20.15;74.96;94244.75;4151143;28;20085;-70
2022/08/23 06:05:05;;;;;;;25.85;18.90;;;;;;;20.44;73.94;94251.03;4160909;28;20483;-68
2022/08/23 06:07:08;;;;;;;24.85;18.15;;;;;;;20.66;73.02;94253.16;4139822;28;20082;-69
2022/08/23 06:09:13;;;;;;;22.52;18.98;;;;;;;20.83;72.27;94259.38;4158605;28;20071;-68
2022/08/23 06:11:19;;;;;;;21.50;17.63;;;;;;;20.92;71.70;94269.69;4167851;28;20210;-69
2022/08/23 06:13:20;;;;;;;19.48;16.10;;;;;;;21.05;70.97;94264.91;4175143;28;20071;-70
2022/08/23 06:15:22;;;;;;;19.85;17.20;;;;;;;21.20;70.31;94261.75;4179734;28;20059;-73
2022/08/23 06:17:24;;;;;;;21.38;16.25;;;;;;;21.34;70.04;94262.31;4173625;28;20424;-70
2022/08/23 06:19:26;;;;;;;19.50;14.75;;;;;;;21.30;69.16;94257.69;4171983;28;20049;-68
2022/08/23 06:21:29;;;;;;;17.98;14.73;;;;;;;21.27;68.91;94265.09;4161518;28;20387;-69
2022/08/23 06:23:31;;;;;;;17.23;14.27;;;;;;;21.34;68.99;94259.66;4158301;28;20448;-69
2022/08/23 06:25:37;;;;;;;22.30;15.68;;;;;;;21.42;69.42;94274.47;4160811;28;20071;-70
2022/08/23 06:27:39;;;;;;;18.30;15.35;;;;;;;21.42;69.24;94277.13;4167717;28;20501;-69
2022/08/23 06:29:44;;;;;;;20.02;16.08;;;;;;;21.32;68.58;94268.94;4168601;28;20147;-69
2022/08/23 06:31:49;;;;;;;19.25;14.52;;;;;;;21.14;69.02;94284.00;4174099;28;20106;-71
2022/08/23 06:33:52;;;;;;;19.08;15.07;;;;;;;20.96;70.10;94276.97;4174269;28;20084;-70
2022/08/23 06:36:07;;;;;;;21.80;15.17;;;;;;;20.85;70.55;94280.47;4158923;28;20096;-70
2022/08/23 06:38:09;;;;;;;16.92;13.77;;;;;;;21.04;70.47;94281.13;4145120;28;20050;-70
2022/08/23 06:40:11;;;;;;;19.10;14.82;;;;;;;21.17;70.43;94275.56;4174781;28;20060;-70
2022/08/23 06:42:18;;;;;;;22.00;15.48;;;;;;;21.25;70.18;94269.88;4163123;28;20104;-71
2022/08/23 06:44:43;;;;;;;17.95;13.85;;;;;;;21.51;69.72;94278.41;4171040;28;20496;-71
2022/08/23 06:46:47;;;;;;;16.38;14.27;;;;;;;21.59;68.58;94275.31;4163264;28;20080;-67
2022/08/23 06:48:52;;;;;;;21.15;15.80;;;;;;;21.70;68.63;94286.19;4145352;28;20053;-73
2022/08/23 06:50:53;;;;;;;20.92;16.13;;;;;;;21.66;68.37;94283.19;4150133;28;20073;-68
2022/08/23 06:52:56;;;;;;;20.83;15.35;;;;;;;21.69;68.53;94282.72;4157094;28;20054;-69
2022/08/23 06:54:58;;;;;;;20.00;15.50;;;;;;;21.79;68.55;94287.41;4133377;28;20509;-73
2022/08/23 06:57:01;;;;;;;20.60;14.75;;;;;;;21.79;68.07;94282.09;4170481;28;20049;-72
2022/08/23 06:59:05;;;;;;;20.67;14.85;;;;;;;21.89;68.04;94285.75;4151671;28;20400;-72
2022/08/23 07:01:24;;;;;;;19.63;14.27;;;;;;;22.09;67.34;94279.97;4147130;28;20053;-69
2022/08/23 07:03:45;;;;;;;23.08;15.55;;;;;;;22.19;66.88;94281.19;4160774;28;20465;-72
2022/08/23 07:05:48;;;;;;;19.35;15.35;;;;;;;22.19;66.58;94279.31;4154650;28;20059;-69
2022/08/23 07:07:50;;;;;;;19.55;15.77;;;;;;;22.14;67.05;94281.13;4144256;28;20092;-69
2022/08/23 07:09:53;;;;;;;15.80;13.63;;;;;;;22.17;67.08;94280.63;4143127;28;20061;-70
2022/08/23 07:11:55;;;;;;;18.10;15.40;;;;;;;22.07;66.23;94283.94;4150122;28;20053;-70
2022/08/23 07:13:59;;;;;;;19.90;14.48;;;;;;;22.15;67.03;94280.06;4138820;28;20563;-70
2022/08/23 07:16:02;;;;;;;17.60;12.95;;;;;;;22.28;66.26;94285.09;4150783;28;20449;-69
2022/08/23 07:18:04;;;;;;;16.33;13.70;;;;;;;22.43;65.69;94287.22;4152230;28;20064;-69
2022/08/23 07:20:10;;;;;;;17.90;13.50;;;;;;;22.50;65.35;94287.88;4156123;28;20041;-70
2022/08/23 07:22:12;;;;;;;18.23;13.63;;;;;;;22.57;65.28;94285.03;4146911;28;20056;-69
2022/08/23 07:24:17;;;;;;;15.27;13.68;;;;;;;22.75;65.63;94286.63;4152769;28;20140;-67
2022/08/23 07:26:20;;;;;;;17.20;13.77;;;;;;;22.87;65.68;94288.16;4151634;28;20053;-70
2022/08/23 07:28:22;;;;;;;18.75;13.05;;;;;;;23.01;65.42;94279.81;4159871;28;20590;-70
2022/08/23 07:30:24;;;;;;;19.48;13.00;;;;;;;22.97;63.81;94281.31;4145024;28;20104;-68
2022/08/23 07:32:25;;;;;;;21.30;15.00;;;;;;;22.67;63.79;94288.69;4150006;28;20466;-70
2022/08/23 07:34:28;;;;;;;25.10;16.52;;;;;;;22.39;64.41;94286.91;4159703;28;20132;-69
2022/08/23 07:36:31;;;;;;;18.02;13.75;;;;;;;22.04;65.16;94289.75;4148830;28;20121;-69
2022/08/23 07:38:34;;;;;;;21.02;16.05;;;;;;;21.92;66.09;94287.16;4150084;28;20127;-69
2022/08/23 07:40:35;;;;;;;18.70;14.75;;;;;;;21.90;66.49;94297.25;4162567;28;20038;-69
2022/08/23 07:42:41;;;;;;;21.00;14.55;;;;;;;21.82;66.78;94295.75;4157958;28;20053;-71
2022/08/23 07:44:42;;;;;;;20.67;14.98;;;;;;;21.77;66.71;94290.34;4148532;28;20085;-70
2022/08/23 07:46:46;;;;;;;17.85;14.32;;;;;;;21.73;66.84;94293.72;4155957;28;20053;-69
2022/08/23 07:48:49;;;;;;;20.75;14.45;;;;;;;21.76;66.94;94293.25;4159622;28;20065;-69
2022/08/23 07:50:58;;;;;;;20.58;15.18;;;;;;;21.75;66.59;94294.31;4159942;28;20087;-69
2022/08/23 07:53:02;;;;;;;15.85;13.70;;;;;;;21.94;66.39;94305.56;4172578;28;20053;-69
2022/08/23 07:55:05;;;;;;;18.08;14.43;;;;;;;22.15;66.22;94293.41;4164289;28;20053;-70
2022/08/23 07:57:07;;;;;;;17.27;13.75;;;;;;;22.39;65.54;94294.91;4183795;28;20053;-70
2022/08/23 07:59:10;;;;;;;18.83;14.73;;;;;;;22.55;64.64;94292.47;4148433;28;20084;-70
2022/08/23 08:01:18;;;;;;;18.52;14.75;;;;;;;22.63;64.69;94300.09;4164244;28;20061;-68
2022/08/23 08:03:20;;;;;;;20.08;14.57;;;;;;;22.46;64.22;94298.22;4159090;28;20107;-69
2022/08/23 08:05:22;;;;;;;17.95;14.55;;;;;;;22.28;65.05;94309.13;4158855;28;20053;-69
2022/08/23 08:07:26;;;;;;;18.95;15.15;;;;;;;22.39;65.07;94316.25;4175140;28;20080;-69
2022/08/23 08:09:31;;;;;;;17.90;15.75;;;;;;;22.47;64.80;94301.69;4176302;28;20397;-70
2022/08/23 08:11:34;;;;;;;19.83;16.05;;;;;;;22.55;65.18;94311.97;4175088;28;20136;-67
2022/08/23 08:13:38;;;;;;;19.70;15.02;;;;;;;22.57;64.09;94314.41;4175609;28;20044;-71
2022/08/23 08:15:41;;;;;;;19.05;15.35;;;;;;;22.65;63.90;94309.47;4175759;28;20080;-69
2022/08/23 08:17:47;;;;;;;21.27;14.77;;;;;;;22.79;64.35;94317.13;4175712;28;20053;-68
2022/08/23 08:19:48;;;;;;;19.33;15.05;;;;;;;22.92;64.27;94313.31;4157531;28;20124;-71
2022/08/23 08:21:51;;;;;;;20.60;15.15;;;;;;;22.96;63.60;94317.91;4157068;28;20057;-69
2022/08/23 08:23:56;;;;;;;20.27;15.70;;;;;;;23.01;63.63;94328.69;4174704;28;20087;-69
2022/08/23 08:26:03;;;;;;;19.95;15.52;;;;;;;23.03;62.71;94328.47;4157392;28;20053;-68
2022/08/23 08:28:06;;;;;;;18.10;14.77;;;;;;;23.08;63.19;94317.84;4174157;28;20064;-67
2022/08/23 08:30:14;;;;;;;20.45;15.45;;;;;;;23.25;62.89;94332.00;4174000;28;20527;-70
2022/08/23 08:32:16;;;;;;;17.90;14.23;;;;;;;23.34;62.62;94320.84;4174302;28;20407;-70
2022/08/23 08:34:18;;;;;;;18.83;15.50;;;;;;;23.31;61.52;94319.50;4168214;28;20148;-71
2022/08/23 08:36:37;;;;;;;20.20;15.80;;;;;;;23.16;62.10;94313.94;4171240;28;20053;-69
2022/08/23 08:38:40;;;;;;;20.50;15.48;;;;;;;23.19;62.17;94326.81;4163983;28;20084;-70
2022/08/23 08:41:05;;;;;;;19.45;15.38;;;;;;;23.29;62.17;94330.41;4168881;28;20571;-70
2022/08/23 08:43:29;;;;;;;19.85;16.17;;;;;;;23.37;62.26;94315.81;4165136;28;20354;-70
2022/08/23 08:45:44;;;;;;;17.90;15.23;;;;;;;23.45;62.11;94317.28;4157273;28;20071;-68
2022/08/23 08:48:02;;;;;;;20.67;15.20;;;;;;;23.55;61.67;94322.72;4169543;28;20059;-70
2022/08/23 08:50:04;;;;;;;21.58;15.27;;;;;;;23.59;61.01;94321.16;4172495;28;20296;-67
2022/08/23 08:52:27;;;;;;;20.20;15.23;;;;;;;23.61;61.37;94316.38;4173394;28;20051;-68
2022/08/23 08:54:32;;;;;;;18.75;15.23;;;;;;;23.66;61.32;94316.47;4162031;28;20111;-68
2022/08/23 08:56:37;;;;;;;23.85;15.75;;;;;;;23.69;61.20;94309.81;4144364;28;20057;-68
2022/08/23 08:58:51;;;;;;;18.80;15.73;;;;;;;23.66;60.99;94304.94;4166309;28;20059;-70
2022/08/23 09:00:53;;;;;;;18.83;15.95;;;;;;;23.71;61.17;94305.00;4140961;28;20053;-69
2022/08/23 09:02:59;;;;;;;22.05;15.30;;;;;;;23.78;61.04;94294.16;4167832;28;20052;-69
2022/08/23 09:05:07;;;;;;;18.80;15.50;;;;;;;23.85;61.17;94297.44;4144107;28;20056;-69
2022/08/23 09:07:17;;;;;;;18.92;15.20;;;;;;;23.91;60.83;94296.41;4144608;28;20057;-69
2022/08/23 09:09:27;;;;;;;19.63;16.05;;;;;;;23.99;60.27;94282.59;4174750;28;20094;-69
2022/08/23 09:11:54;;;;;;;22.80;16.30;;;;;;;24.08;60.01;94280.28;4174024;28;20056;-68
2022/08/23 09:14:21;;;;;;;22.80;16.13;;;;;;;24.21;58.88;94276.38;4158513;28;20059;-69
2022/08/23 09:16:31;;;;;;;20.75;15.50;;;;;;;24.01;59.39;94277.81;4165663;28;20421;-70
2022/08/23 09:18:35;;;;;;;21.70;16.58;;;;;;;23.89;59.70;94271.78;4156816;28;20088;-69
2022/08/23 09:20:38;;;;;;;18.88;16.48;;;;;;;23.97;59.83;94275.88;4140876;28;20132;-68
2022/08/23 09:22:44;;;;;;;19.98;15.38;;;;;;;24.17;60.05;94270.72;4140026;28;20477;-70
2022/08/23 09:24:46;;;;;;;22.42;15.85;;;;;;;24.25;59.51;94277.47;4159492;28;20060;-70
2022/08/23 09:26:48;;;;;;;18.23;13.60;;;;;;;24.26;59.79;94279.09;4159069;28;20049;-71
2022/08/23 09:28:53;;;;;;;20.10;15.48;;;;;;;24.42;59.37;94282.72;4163378;28;20226;-71
2022/08/23 09:30:57;;;;;;;17.00;14.02;;;;;;;24.62;58.94;94276.72;4148699;28;20061;-70
2022/08/23 09:33:14;;;;;;;17.45;13.98;;;;;;;24.89;58.54;94282.81;4158718;28;20060;-69
2022/08/23 09:35:21;;;;;;;20.15;14.55;;;;;;;25.08;57.51;94279.69;4158651;28;20432;-69
2022/08/23 09:37:24;;;;;;;16.60;13.20;;;;;;;25.18;56.84;94281.63;4140279;28;20050;-70
2022/08/23 09:39:27;;;;;;;18.67;14.13;;;;;;;25.15;55.91;94285.66;4158707;28;20053;-70
2022/08/23 09:41:37;;;;;;;18.45;14.40;;;;;;;24.71;56.53;94285.91;4168613;28;20129;-70
2022/08/23 09:43:46;;;;;;;21.90;14.25;;;;;;;24.65;56.97;94281.56;4168636;28;20396;-69